Time;durP1;ratioP1;P1;durP2;ratioP2;P2;SDS_P1;SDS_P2;PMS_P1;PMS_P2;Temp;Humidity;BMP_temperature;BMP_pressure;BME280_temperature;BME280_humidity;BME280_pressure;Samples;Min_cycle;Max_cycle;Signal;HPM_P1;HPM_P2
2022/03/30 00:01:11;;;;;;;25.27;14.47;;;;;;;9.26;62.25;94448.44;6070464;23;20188;-80
2022/03/30 00:03:37;;;;;;;24.83;14.77;;;;;;;9.17;62.84;94450.25;6096801;23;20153;-79
2022/03/30 00:06:05;;;;;;;26.67;15.73;;;;;;;9.21;62.44;94454.13;6097311;23;20619;-78
2022/03/30 00:08:30;;;;;;;27.87;14.53;;;;;;;9.25;62.02;94450.22;6071406;23;20250;-79
2022/03/30 00:10:56;;;;;;;28.47;15.13;;;;;;;9.34;61.81;94457.00;6071158;23;20161;-79
2022/03/30 00:13:22;;;;;;;26.80;14.73;;;;;;;9.25;62.12;94455.41;6070276;23;20212;-79
2022/03/30 00:15:48;;;;;;;23.77;13.87;;;;;;;9.33;62.01;94457.97;6119147;23;20197;-79
2022/03/30 00:18:13;;;;;;;30.00;14.63;;;;;;;9.32;62.22;94451.19;6119670;23;20157;-80
2022/03/30 00:20:38;;;;;;;26.57;13.67;;;;;;;9.27;63.32;94447.47;6095814;23;20228;-80
2022/03/30 00:23:04;;;;;;;24.43;14.70;;;;;;;9.29;63.47;94450.72;6096430;23;20152;-80
2022/03/30 00:25:29;;;;;;;21.67;13.60;;;;;;;9.35;64.48;94432.72;6071041;23;20799;-81
2022/03/30 00:27:54;;;;;;;23.57;14.03;;;;;;;9.43;64.80;94436.25;6071104;23;20161;-80
2022/03/30 00:30:21;;;;;;;30.10;13.30;;;;;;;9.44;64.46;94428.31;6071085;23;20180;-79
2022/03/30 00:32:46;;;;;;;24.37;11.80;;;;;;;9.41;63.78;94433.84;6094932;23;20164;-79
2022/03/30 00:35:13;;;;;;;22.07;12.33;;;;;;;9.44;62.02;94422.31;6046827;23;20193;-79
2022/03/30 00:37:39;;;;;;;22.20;12.87;;;;;;;9.45;62.56;94426.53;6071105;23;20163;-78
2022/03/30 00:40:07;;;;;;;23.17;13.40;;;;;;;9.47;63.93;94416.81;6094803;23;20157;-79
2022/03/30 00:42:32;;;;;;;24.60;14.47;;;;;;;9.41;65.29;94422.66;6097180;23;20164;-80
2022/03/30 00:44:57;;;;;;;22.97;12.07;;;;;;;9.38;64.91;94410.88;6096225;23;20185;-78
2022/03/30 00:47:25;;;;;;;27.00;14.17;;;;;;;9.35;65.20;94411.19;6122155;23;20196;-79
2022/03/30 00:49:51;;;;;;;21.73;12.97;;;;;;;9.33;65.80;94413.13;6122825;23;20189;-78
2022/03/30 00:52:17;;;;;;;23.73;14.07;;;;;;;9.29;66.53;94412.69;6120305;23;20145;-79
2022/03/30 00:54:44;;;;;;;23.13;13.50;;;;;;;9.26;67.02;94409.59;6071976;23;20168;-78
2022/03/30 00:57:11;;;;;;;21.47;14.03;;;;;;;9.20;68.03;94412.88;6094844;23;20157;-78
2022/03/30 00:59:37;;;;;;;27.00;12.63;;;;;;;9.14;66.35;94416.91;6119728;23;20157;-79
2022/03/30 01:02:03;;;;;;;22.63;13.10;;;;;;;9.12;65.90;94421.47;6070018;23;20199;-80
2022/03/30 01:04:29;;;;;;;24.97;13.57;;;;;;;9.15;64.88;94418.53;6095368;23;20160;-80
2022/03/30 01:06:54;;;;;;;22.97;14.10;;;;;;;9.14;64.68;94416.91;6095323;23;20168;-79
2022/03/30 01:09:20;;;;;;;25.07;13.87;;;;;;;9.18;65.77;94415.59;6070871;23;20631;-80
2022/03/30 01:11:47;;;;;;;24.87;13.93;;;;;;;9.12;66.65;94421.47;6094039;23;20153;-79
2022/03/30 01:14:13;;;;;;;22.43;12.57;;;;;;;9.17;66.83;94410.59;6095915;23;20156;-80
2022/03/30 01:16:40;;;;;;;31.70;15.17;;;;;;;9.12;68.35;94407.72;6047828;23;20203;-81
2022/03/30 01:19:07;;;;;;;23.43;12.90;;;;;;;9.10;69.10;94397.53;6119865;23;20161;-81
2022/03/30 01:21:39;;;;;;;22.93;14.07;;;;;;;9.07;69.93;94396.06;6119622;23;20152;-79
2022/03/30 01:24:06;;;;;;;34.20;15.80;;;;;;;9.10;68.84;94389.75;6071636;23;20153;-80
2022/03/30 01:26:31;;;;;;;21.07;13.40;;;;;;;9.10;69.36;94384.56;6070691;23;20177;-81
2022/03/30 01:28:57;;;;;;;23.10;14.77;;;;;;;9.10;69.74;94384.56;6118720;23;20216;-80
2022/03/30 01:34:07;;;;;;;25.37;13.77;;;;;;;9.11;69.45;94368.06;6094326;23;20152;-80
2022/03/30 01:36:33;;;;;;;25.23;14.90;;;;;;;9.10;69.10;94374.22;6069827;23;20188;-81
2022/03/30 01:38:58;;;;;;;27.13;15.27;;;;;;;9.08;69.52;94365.78;6070576;23;20537;-78
2022/03/30 01:41:23;;;;;;;19.43;13.37;;;;;;;8.97;70.11;94364.38;6071199;23;20161;-79
2022/03/30 01:43:49;;;;;;;23.27;13.77;;;;;;;8.97;70.37;94358.38;6071823;23;20165;-79
2022/03/30 01:46:14;;;;;;;25.70;13.93;;;;;;;8.93;70.07;94362.28;6094833;23;20235;-80
2022/03/30 01:48:39;;;;;;;23.93;14.13;;;;;;;8.93;70.59;94350.16;6071682;23;20666;-79
2022/03/30 01:51:05;;;;;;;26.70;14.60;;;;;;;8.90;70.75;94354.84;6094181;23;20161;-80
2022/03/30 01:53:30;;;;;;;25.53;14.17;;;;;;;8.89;70.89;94345.44;6094467;23;20600;-80
2022/03/30 01:55:56;;;;;;;26.27;14.80;;;;;;;8.86;70.77;94345.78;6096445;23;20224;-81
2022/03/30 01:58:21;;;;;;;23.73;14.50;;;;;;;8.87;70.99;94337.06;6070919;23;20172;-79
2022/03/30 02:00:46;;;;;;;26.97;15.87;;;;;;;8.86;71.27;94331.06;6072156;23;20168;-80
2022/03/30 02:03:12;;;;;;;24.87;14.03;;;;;;;8.88;70.85;94334.28;6096118;23;20160;-80
2022/03/30 02:05:38;;;;;;;22.77;14.67;;;;;;;8.88;71.49;94333.50;6072626;23;20172;-81
2022/03/30 02:08:03;;;;;;;24.67;15.27;;;;;;;8.86;71.72;94325.09;6073051;23;20256;-81
2022/03/30 02:10:29;;;;;;;23.90;15.43;;;;;;;8.82;71.87;94316.81;6073124;23;20181;-80
2022/03/30 02:12:54;;;;;;;25.30;15.20;;;;;;;8.80;72.07;94311.81;6096181;23;20157;-81
2022/03/30 02:15:20;;;;;;;24.17;15.13;;;;;;;8.79;72.27;94312.81;6097050;23;20184;-80
2022/03/30 02:17:45;;;;;;;20.77;14.73;;;;;;;8.78;72.24;94308.59;6082193;23;20192;-80
2022/03/30 02:20:11;;;;;;;24.33;14.43;;;;;;;8.78;72.29;94307.78;6109904;23;20145;-80
2022/03/30 02:22:37;;;;;;;25.70;15.87;;;;;;;8.75;72.37;94303.78;6080817;23;20167;-81
2022/03/30 02:25:03;;;;;;;20.03;14.20;;;;;;;8.77;72.06;94301.81;6073408;23;20180;-81
2022/03/30 02:27:28;;;;;;;21.47;14.33;;;;;;;8.78;71.73;94300.03;6072729;23;20219;-80
2022/03/30 02:29:54;;;;;;;25.43;15.63;;;;;;;8.77;71.23;94304.41;6072574;23;20180;-80
2022/03/30 02:32:19;;;;;;;25.80;16.63;;;;;;;8.77;71.29;94294.06;6120727;23;20249;-81
2022/03/30 02:34:45;;;;;;;25.60;16.37;;;;;;;8.76;70.80;94292.44;6098704;23;20153;-81
2022/03/30 02:37:11;;;;;;;25.27;16.10;;;;;;;8.76;71.05;94295.03;6073173;23;20548;-80
2022/03/30 02:39:36;;;;;;;26.93;15.77;;;;;;;8.71;71.27;94292.13;6072587;23;20184;-81
2022/03/30 02:42:02;;;;;;;23.13;15.83;;;;;;;8.72;71.19;94288.56;6095450;23;20200;-80
2022/03/30 02:44:28;;;;;;;23.57;15.93;;;;;;;8.69;71.81;94288.09;6071778;23;20220;-81
2022/03/30 02:46:54;;;;;;;24.17;16.07;;;;;;;8.65;71.79;94287.59;6096207;23;20228;-80
2022/03/30 02:49:19;;;;;;;29.97;17.57;;;;;;;8.66;72.33;94281.47;6095850;23;20210;-80
2022/03/30 02:51:44;;;;;;;27.67;17.37;;;;;;;8.69;72.42;94282.91;6096644;23;20207;-80
2022/03/30 02:54:10;;;;;;;24.83;16.67;;;;;;;8.65;73.13;94272.06;6097672;23;20152;-80
2022/03/30 02:56:35;;;;;;;27.87;16.80;;;;;;;8.62;73.42;94272.41;6095367;23;20632;-79
2022/03/30 02:59:01;;;;;;;26.50;17.10;;;;;;;8.58;74.69;94271.16;6071407;23;20160;-79
2022/03/30 03:01:26;;;;;;;22.80;15.07;;;;;;;8.65;74.16;94266.91;6095351;23;20157;-79
2022/03/30 03:03:51;;;;;;;22.43;14.77;;;;;;;8.62;74.46;94269.81;6072573;23;20164;-80
2022/03/30 03:06:17;;;;;;;27.17;16.23;;;;;;;8.57;74.71;94264.34;6095325;23;20187;-80
2022/03/30 03:08:42;;;;;;;24.97;16.13;;;;;;;8.50;76.15;94266.00;6095978;23;20161;-80
2022/03/30 03:11:07;;;;;;;27.77;17.13;;;;;;;8.49;76.41;94256.63;6071302;23;20171;-80
2022/03/30 03:13:33;;;;;;;25.00;16.97;;;;;;;8.48;76.57;94250.63;6071702;23;20168;-80
2022/03/30 03:15:58;;;;;;;26.23;16.87;;;;;;;8.46;77.64;94257.72;6096516;23;20557;-80
2022/03/30 03:18:23;;;;;;;24.10;16.07;;;;;;;8.47;77.73;94254.16;6072092;23;20156;-80
2022/03/30 03:20:49;;;;;;;28.93;17.90;;;;;;;8.46;78.70;94251.75;6071998;23;20161;-80
2022/03/30 03:23:16;;;;;;;27.67;19.13;;;;;;;8.44;79.12;94258.88;6095325;23;20157;-79
2022/03/30 03:25:41;;;;;;;27.60;17.40;;;;;;;8.43;79.20;94258.06;6096319;23;20191;-79
2022/03/30 03:28:08;;;;;;;31.83;18.90;;;;;;;8.45;79.55;94255.31;6095843;23;20157;-80
2022/03/30 03:30:34;;;;;;;29.50;17.13;;;;;;;8.46;80.09;94251.75;6095721;23;20177;-80
2022/03/30 03:32:59;;;;;;;31.97;17.33;;;;;;;8.50;79.61;94256.44;6119679;23;20710;-80
2022/03/30 03:35:25;;;;;;;25.87;16.77;;;;;;;8.47;79.08;94249.00;6071992;23;20223;-79
2022/03/30 03:37:51;;;;;;;29.03;15.90;;;;;;;8.44;78.98;94251.13;6072195;23;20235;-80
2022/03/30 03:40:17;;;;;;;25.83;16.20;;;;;;;8.30;79.47;94259.53;6120408;23;20164;-81
2022/03/30 03:42:42;;;;;;;24.50;16.87;;;;;;;8.19;80.02;94260.69;6071512;23;20168;-80
2022/03/30 03:45:08;;;;;;;23.70;14.80;;;;;;;8.23;79.31;94255.03;6071686;23;20666;-80
2022/03/30 03:47:33;;;;;;;24.17;15.57;;;;;;;8.23;79.20;94259.41;6072198;23;20221;-81
2022/03/30 03:49:59;;;;;;;23.07;16.10;;;;;;;8.18;79.90;94264.25;6096593;23;20615;-79
2022/03/30 03:52:24;;;;;;;21.63;14.83;;;;;;;8.14;81.15;94253.44;6095577;23;20153;-81
2022/03/30 03:54:49;;;;;;;24.07;15.30;;;;;;;8.07;81.49;94249.06;6072723;23;20232;-80
2022/03/30 03:57:14;;;;;;;22.63;15.93;;;;;;;8.04;82.11;94250.22;6095889;23;20194;-81
2022/03/30 03:59:40;;;;;;;27.30;18.33;;;;;;;8.05;83.11;94248.44;6090931;23;20149;-80
2022/03/30 04:02:07;;;;;;;23.53;16.77;;;;;;;7.92;84.42;94254.09;6092733;23;20145;-81
2022/03/30 04:04:33;;;;;;;26.97;16.83;;;;;;;7.71;85.70;94254.59;6092816;23;20167;-80
2022/03/30 04:06:58;;;;;;;24.40;15.23;;;;;;;7.66;86.85;94246.50;6095112;23;20492;-80
2022/03/30 04:09:23;;;;;;;27.00;15.17;;;;;;;7.71;87.05;94249.41;6097351;23;20160;-80
2022/03/30 04:11:48;;;;;;;26.27;15.57;;;;;;;7.73;87.73;94249.25;6118636;23;20233;-80
2022/03/30 04:14:17;;;;;;;26.07;14.80;;;;;;;7.77;87.94;94250.53;6071876;23;20409;-80
2022/03/30 04:16:43;;;;;;;25.63;15.47;;;;;;;7.70;89.20;94254.75;6073438;23;20281;-79
2022/03/30 04:19:08;;;;;;;27.67;17.10;;;;;;;7.75;89.66;94252.47;6071353;23;20164;-80
2022/03/30 04:21:33;;;;;;;29.10;17.50;;;;;;;7.74;90.72;94250.88;6093225;23;20184;-80
2022/03/30 04:23:59;;;;;;;26.30;16.40;;;;;;;7.70;91.58;94247.81;6094697;23;20156;-82
2022/03/30 04:26:24;;;;;;;27.97;17.03;;;;;;;7.66;91.63;94246.50;6072687;23;20725;-80
2022/03/30 04:28:49;;;;;;;28.40;17.33;;;;;;;7.62;92.27;94242.63;6070619;23;20171;-81
2022/03/30 04:31:15;;;;;;;23.73;15.73;;;;;;;7.55;92.57;94241.66;6068973;23;20145;-81
2022/03/30 04:33:40;;;;;;;25.00;16.13;;;;;;;7.49;93.28;94242.28;6070754;23;20167;-80
2022/03/30 04:36:06;;;;;;;23.87;17.27;;;;;;;7.50;92.78;94247.28;6070788;23;20181;-82
2022/03/30 04:38:32;;;;;;;32.67;16.73;;;;;;;7.46;93.33;94237.47;6072123;23;20679;-82
2022/03/30 04:40:58;;;;;;;25.60;16.60;;;;;;;7.46;93.89;94235.69;6096488;23;20164;-81
2022/03/30 04:43:24;;;;;;;29.30;17.13;;;;;;;7.44;94.12;94235.03;6093941;23;20294;-81
2022/03/30 04:45:49;;;;;;;29.30;17.07;;;;;;;7.36;95.16;94227.28;6072181;23;20180;-82
2022/03/30 04:48:14;;;;;;;27.13;16.77;;;;;;;7.36;95.31;94229.88;6095642;23;20686;-81
2022/03/30 04:50:39;;;;;;;28.03;16.40;;;;;;;7.33;95.88;94227.56;6095272;23;20159;-81
2022/03/30 04:53:05;;;;;;;30.13;17.60;;;;;;;7.32;96.15;94234.53;6070524;23;20187;-81
2022/03/30 04:55:31;;;;;;;25.37;16.17;;;;;;;7.28;96.83;94229.84;6070660;23;20184;-81
2022/03/30 04:57:56;;;;;;;27.17;16.90;;;;;;;7.24;97.80;94229.34;6094693;23;20157;-81
2022/03/30 05:00:21;;;;;;;23.43;16.07;;;;;;;7.27;97.62;94223.06;6070521;23;20168;-82
2022/03/30 05:02:46;;;;;;;24.27;15.30;;;;;;;7.32;97.31;94225.97;6070349;23;20156;-82
2022/03/30 05:05:12;;;;;;;27.47;16.33;;;;;;;7.30;97.58;94222.75;6072026;23;20181;-81
2022/03/30 05:07:38;;;;;;;26.37;15.23;;;;;;;7.26;98.55;94226.63;6095644;23;20172;-81
2022/03/30 05:10:05;;;;;;;28.53;16.60;;;;;;;7.18;99.15;94222.25;6069391;23;20175;-81
2022/03/30 05:12:31;;;;;;;23.67;16.40;;;;;;;7.21;99.43;94223.69;6070374;23;20167;-80
2022/03/30 05:14:56;;;;;;;26.93;15.83;;;;;;;7.02;99.86;94225.59;6070883;23;20464;-81
2022/03/30 05:17:21;;;;;;;30.03;15.37;;;;;;;6.97;100.00;94219.28;6093816;23;20167;-81
2022/03/30 05:19:48;;;;;;;30.67;15.13;;;;;;;6.94;100.00;94222.19;6071347;23;20188;-80
2022/03/30 05:22:13;;;;;;;21.93;13.77;;;;;;;7.00;100.00;94213.84;6070224;23;20171;-81
2022/03/30 05:24:39;;;;;;;28.67;14.90;;;;;;;7.06;99.89;94216.56;6094194;23;20603;-82
2022/03/30 05:27:04;;;;;;;28.87;13.83;;;;;;;7.08;99.87;94206.91;6119528;23;20183;-80
2022/03/30 05:29:30;;;;;;;21.70;13.87;;;;;;;7.02;100.00;94199.78;6120615;23;20219;-80
2022/03/30 05:31:55;;;;;;;24.20;13.37;;;;;;;7.11;100.00;94198.03;6093793;23;20160;-81
2022/03/30 05:34:21;;;;;;;23.87;12.60;;;;;;;7.17;100.00;94199.19;6095284;23;20235;-80
2022/03/30 05:36:46;;;;;;;23.67;12.77;;;;;;;7.23;99.83;94195.94;6120523;23;20244;-79
2022/03/30 05:39:11;;;;;;;23.07;12.63;;;;;;;7.23;100.00;94195.94;6072143;23;20161;-79
2022/03/30 05:41:37;;;;;;;25.60;12.40;;;;;;;7.20;100.00;94191.91;6120205;23;20153;-80
2022/03/30 05:44:03;;;;;;;22.10;11.30;;;;;;;7.31;100.00;94183.84;6071912;23;20786;-79
2022/03/30 05:46:28;;;;;;;24.37;12.40;;;;;;;7.38;99.03;94184.81;6072122;23;20176;-82
2022/03/30 05:48:53;;;;;;;21.07;11.53;;;;;;;7.39;98.76;94185.63;6095689;23;20160;-79
2022/03/30 05:51:19;;;;;;;24.70;11.53;;;;;;;7.41;98.82;94180.28;6095456;23;20157;-81
2022/03/30 05:53:45;;;;;;;19.33;10.90;;;;;;;7.26;99.50;94182.72;6072171;23;20161;-79
2022/03/30 05:56:10;;;;;;;21.27;11.67;;;;;;;7.33;99.74;94181.94;6071826;23;20195;-80
2022/03/30 05:58:36;;;;;;;17.27;11.17;;;;;;;7.37;99.20;94177.25;6122066;23;20161;-83
2022/03/30 06:01:01;;;;;;;18.80;10.30;;;;;;;7.33;99.02;94175.94;6074170;23;20161;-80
2022/03/30 06:03:26;;;;;;;23.63;11.23;;;;;;;7.38;99.55;94171.91;6098079;23;20157;-79
2022/03/30 06:05:52;;;;;;;20.63;10.77;;;;;;;7.33;100.00;94175.94;6074603;23;20176;-80
2022/03/30 06:08:17;;;;;;;18.43;9.90;;;;;;;7.34;99.99;94175.78;6074368;23;20589;-79
2022/03/30 06:10:43;;;;;;;22.23;10.67;;;;;;;7.43;99.20;94175.81;6074095;23;20195;-81
2022/03/30 06:13:08;;;;;;;17.27;9.77;;;;;;;7.35;98.86;94181.75;6072382;23;20498;-80
2022/03/30 06:15:34;;;;;;;18.50;10.83;;;;;;;7.29;99.54;94180.63;6075389;23;20235;-79
2022/03/30 06:17:59;;;;;;;19.57;10.90;;;;;;;7.40;99.35;94176.91;6074325;23;20566;-80
2022/03/30 06:20:25;;;;;;;16.67;9.63;;;;;;;7.40;99.26;94179.50;6123125;23;20145;-81
2022/03/30 06:22:52;;;;;;;21.87;10.50;;;;;;;7.35;99.75;94174.03;6097244;23;20179;-80
2022/03/30 06:25:22;;;;;;;16.70;10.47;;;;;;;7.36;99.38;94180.78;6074163;23;20203;-80
2022/03/30 06:27:48;;;;;;;24.17;10.60;;;;;;;7.32;99.71;94179.50;6074428;23;20168;-82
2022/03/30 06:30:13;;;;;;;16.93;10.17;;;;;;;7.34;99.22;94180.97;6072184;23;20176;-83
2022/03/30 06:32:39;;;;;;;23.77;10.93;;;;;;;7.15;100.00;94175.28;6072647;23;20216;-79
2022/03/30 06:35:05;;;;;;;18.90;10.83;;;;;;;7.20;100.00;94175.63;6097090;23;20177;-80
2022/03/30 06:37:31;;;;;;;21.67;10.53;;;;;;;7.22;100.00;94179.66;6073298;23;20184;-82
2022/03/30 06:39:56;;;;;;;20.27;10.40;;;;;;;7.32;100.00;94180.28;6074439;23;20156;-79
2022/03/30 06:42:22;;;;;;;20.93;10.17;;;;;;;7.39;100.00;94176.09;6094751;23;20526;-80
2022/03/30 06:44:47;;;;;;;23.03;11.70;;;;;;;7.33;100.00;94175.94;6096890;23;20576;-81
2022/03/30 06:47:12;;;;;;;19.17;11.23;;;;;;;7.27;100.00;94172.25;6072949;23;20162;-81
2022/03/30 06:49:38;;;;;;;20.87;10.70;;;;;;;7.34;100.00;94175.78;6100167;23;20172;-81
2022/03/30 06:52:08;;;;;;;20.33;10.27;;;;;;;7.43;99.64;94166.28;6098081;23;20225;-79
2022/03/30 06:54:34;;;;;;;17.13;9.73;;;;;;;7.36;100.00;94173.06;6073338;23;20196;-79
2022/03/30 06:57:00;;;;;;;18.97;10.27;;;;;;;7.36;100.00;94163.53;6121817;23;20200;-80
2022/03/30 06:59:26;;;;;;;22.97;10.53;;;;;;;7.47;100.00;94164.16;6097622;23;20642;-80
2022/03/30 07:01:53;;;;;;;21.13;9.40;;;;;;;7.53;99.99;94164.31;6098544;23;20161;-81
2022/03/30 07:04:18;;;;;;;18.80;11.20;;;;;;;7.60;100.00;94165.28;6074314;23;20232;-79
2022/03/30 07:12:12;;;;;;;19.90;9.83;;;;;;;7.88;98.75;94159.75;6099661;23;20540;-81
2022/03/30 07:14:37;;;;;;;24.43;11.33;;;;;;;8.11;98.25;94158.06;6074442;23;20156;-79
2022/03/30 07:17:03;;;;;;;19.93;9.40;;;;;;;8.05;99.05;94152.78;6074399;23;20243;-81
2022/03/30 07:19:28;;;;;;;19.23;10.07;;;;;;;8.14;98.63;94160.34;6098765;23;20157;-81
2022/03/30 07:21:53;;;;;;;16.40;9.97;;;;;;;8.31;98.52;94157.69;6075432;23;20165;-80
2022/03/30 07:24:19;;;;;;;25.50;10.80;;;;;;;8.33;97.85;94153.97;6099248;23;20196;-81
2022/03/30 07:26:44;;;;;;;22.23;11.90;;;;;;;8.26;97.82;94160.78;6073534;23;20695;-82
2022/03/30 07:29:09;;;;;;;22.63;11.80;;;;;;;8.30;98.43;94154.28;6101981;23;20165;-82
2022/03/30 07:31:35;;;;;;;20.93;11.47;;;;;;;8.18;98.62;94146.09;6098947;23;20480;-82
2022/03/30 07:34:00;;;;;;;17.87;12.17;;;;;;;8.18;99.96;94145.28;6099892;23;20165;-81
2022/03/30 07:36:25;;;;;;;18.67;10.27;;;;;;;8.38;98.77;94138.75;6098819;23;20199;-81
2022/03/30 07:38:50;;;;;;;17.87;10.97;;;;;;;8.43;98.71;94144.25;6074810;23;20164;-81
2022/03/30 07:41:16;;;;;;;19.50;10.67;;;;;;;8.34;98.68;94140.06;6096709;23;20172;-82
2022/03/30 07:43:41;;;;;;;24.10;11.60;;;;;;;8.41;98.21;94143.63;6100969;23;20556;-82
2022/03/30 07:46:08;;;;;;;18.37;11.93;;;;;;;8.29;98.71;94146.69;6099187;23;20531;-82
2022/03/30 07:48:33;;;;;;;23.90;11.60;;;;;;;8.42;98.49;94145.22;6098788;23;20163;-81
2022/03/30 07:50:58;;;;;;;21.50;11.17;;;;;;;8.45;97.42;94142.28;6074377;23;20239;-83
2022/03/30 07:53:24;;;;;;;25.57;11.53;;;;;;;8.31;97.94;94139.59;6098189;23;20606;-81
2022/03/30 07:55:49;;;;;;;23.43;10.63;;;;;;;8.29;98.27;94144.09;6099490;23;20200;-79
2022/03/30 07:58:14;;;;;;;19.83;10.87;;;;;;;8.21;98.96;94138.00;6098545;23;20196;-82
2022/03/30 08:00:40;;;;;;;20.90;11.93;;;;;;;8.32;98.98;94142.00;6075454;23;20161;-79
2022/03/30 08:03:05;;;;;;;21.93;12.80;;;;;;;8.20;99.28;94144.13;6101822;23;20153;-81
2022/03/30 08:05:30;;;;;;;21.10;12.03;;;;;;;8.33;99.20;94140.22;6075496;23;20199;-80
2022/03/30 08:07:56;;;;;;;22.73;10.23;;;;;;;8.33;98.94;94135.88;6101451;23;20163;-80
2022/03/30 08:10:21;;;;;;;26.37;11.27;;;;;;;8.48;97.90;94138.56;6100541;23;20169;-81
2022/03/30 08:12:48;;;;;;;19.40;11.20;;;;;;;8.46;97.43;94141.31;6099303;23;20202;-79
2022/03/30 08:15:13;;;;;;;24.97;10.60;;;;;;;8.40;98.77;94138.63;6077370;23;20210;-78
2022/03/30 08:17:38;;;;;;;39.40;23.43;;;;;;;8.52;98.23;94142.44;6074547;23;20618;-79
2022/03/30 08:20:04;;;;;;;46.80;29.17;;;;;;;8.55;99.18;94144.69;6099144;23;20157;-80
2022/03/30 08:22:30;;;;;;;27.63;16.90;;;;;;;8.49;98.53;94145.38;6074371;23;20175;-79
2022/03/30 08:24:57;;;;;;;18.63;11.40;;;;;;;8.61;98.13;94149.19;6099592;23;20615;-79
2022/03/30 08:27:26;;;;;;;26.47;12.10;;;;;;;8.50;99.11;94140.03;6099247;23;20200;-79
2022/03/30 08:29:52;;;;;;;26.10;10.93;;;;;;;8.51;99.22;94151.19;6098919;23;20161;-79
2022/03/30 08:32:19;;;;;;;17.33;10.73;;;;;;;8.51;99.29;94144.22;6073065;23;20160;-80
2022/03/30 08:34:45;;;;;;;20.97;10.97;;;;;;;8.38;99.70;94145.72;6075059;23;20155;-79
2022/03/30 08:37:10;;;;;;;19.17;11.13;;;;;;;8.51;99.46;94141.63;6097648;23;20180;-80
2022/03/30 08:39:36;;;;;;;14.97;9.07;;;;;;;8.61;99.12;94141.41;6096950;23;20157;-80
2022/03/30 08:42:05;;;;;;;18.97;10.73;;;;;;;8.67;98.25;94139.94;6095488;23;20165;-78
2022/03/30 08:44:32;;;;;;;22.37;11.60;;;;;;;8.42;99.36;94141.84;6072886;23;20510;-79
2022/03/30 08:46:57;;;;;;;18.77;10.43;;;;;;;8.49;99.51;94147.97;6099446;23;20152;-79
2022/03/30 08:49:23;;;;;;;16.93;9.50;;;;;;;8.47;99.66;94142.94;6097135;23;20675;-80
2022/03/30 08:51:49;;;;;;;20.50;10.97;;;;;;;8.38;100.00;94146.53;6096029;23;20160;-80
2022/03/30 08:54:17;;;;;;;21.70;11.53;;;;;;;8.43;100.00;94140.84;6073374;23;20153;-80
2022/03/30 08:56:43;;;;;;;22.50;11.93;;;;;;;8.33;100.00;94148.00;6097071;23;20185;-83
2022/03/30 08:59:12;;;;;;;20.57;12.80;;;;;;;8.22;100.00;94147.38;6100004;23;20264;-80
2022/03/30 09:01:39;;;;;;;25.13;11.17;;;;;;;8.12;100.00;94141.56;6096052;23;20167;-80
2022/03/30 09:04:11;;;;;;;21.53;12.80;;;;;;;8.11;100.00;94139.97;6097370;23;20551;-79
2022/03/30 09:06:39;;;;;;;18.77;11.43;;;;;;;8.11;100.00;94139.16;6101582;23;20556;-81
2022/03/30 09:09:04;;;;;;;16.70;10.87;;;;;;;7.97;100.00;94137.28;6102509;23;20603;-79
2022/03/30 09:11:52;;;;;;;21.17;11.97;;;;;;;8.07;100.00;94149.03;6102049;23;20156;-80
2022/03/30 09:14:18;;;;;;;24.27;10.53;;;;;;;8.04;100.00;94144.22;6103043;23;20137;-80
2022/03/30 09:16:46;;;;;;;19.73;11.57;;;;;;;8.03;100.00;94140.00;6103454;23;20185;-80
2022/03/30 09:19:13;;;;;;;24.23;11.40;;;;;;;8.28;100.00;94140.72;6080038;23;20155;-82
2022/03/30 09:21:42;;;;;;;21.53;12.20;;;;;;;8.16;100.00;94139.47;6103755;23;20491;-82
2022/03/30 09:24:08;;;;;;;18.43;9.80;;;;;;;8.07;100.00;94146.47;6105158;23;20153;-81
2022/03/30 09:26:33;;;;;;;22.33;11.97;;;;;;;7.92;100.00;94135.19;6080106;23;20682;-81
2022/03/30 09:28:59;;;;;;;21.60;12.50;;;;;;;8.09;100.00;94133.34;6103183;23;20204;-82
2022/03/30 09:31:25;;;;;;;16.03;11.67;;;;;;;8.26;100.00;94134.91;6078861;23;20646;-82
2022/03/30 09:33:53;;;;;;;20.20;12.63;;;;;;;8.12;100.00;94122.66;6105785;23;20167;-83
2022/03/30 09:36:51;;;;;;;26.43;13.50;;;;;;;8.08;100.00;94134.34;6128497;23;20615;-82
2022/03/30 09:39:28;;;;;;;30.43;15.50;;;;;;;8.04;100.00;94131.28;6093716;23;20496;-81
2022/03/30 09:41:54;;;;;;;20.63;13.03;;;;;;;8.07;100.00;94137.91;6104238;23;20145;-81
2022/03/30 09:44:21;;;;;;;22.47;12.63;;;;;;;8.01;100.00;94128.22;6105492;23;20165;-81
2022/03/30 09:47:06;;;;;;;18.53;12.37;;;;;;;8.11;100.00;94121.88;6105319;23;20177;-79
2022/03/30 09:49:36;;;;;;;29.13;13.23;;;;;;;8.05;100.00;94127.72;6103074;23;20137;-79
2022/03/30 09:52:01;;;;;;;24.43;14.37;;;;;;;7.84;100.00;94117.09;6106348;23;20145;-80
2022/03/30 09:54:59;;;;;;;19.60;13.90;;;;;;;7.94;100.00;94128.88;6052250;23;20721;-81
2022/03/30 09:57:26;;;;;;;27.47;14.70;;;;;;;7.86;100.00;94116.00;6127473;23;20177;-80
2022/03/30 09:59:59;;;;;;;24.67;14.93;;;;;;;8.05;100.00;94122.56;6101372;23;20191;-80
2022/03/30 10:02:32;;;;;;;26.47;14.53;;;;;;;7.91;100.00;94118.06;6100531;23;20169;-78
2022/03/30 10:04:57;;;;;;;24.87;13.27;;;;;;;7.91;100.00;94112.91;6076429;23;20184;-80
2022/03/30 10:07:23;;;;;;;23.07;15.00;;;;;;;7.95;100.00;94114.16;6100509;23;20207;-80
2022/03/30 10:09:49;;;;;;;18.83;12.67;;;;;;;7.95;100.00;94120.16;6074227;23;20502;-80
2022/03/30 10:12:17;;;;;;;24.33;13.77;;;;;;;7.95;100.00;94117.59;6075552;23;20161;-80
2022/03/30 10:14:43;;;;;;;19.60;13.13;;;;;;;7.89;100.00;94115.66;6074794;23;20172;-80
2022/03/30 10:17:08;;;;;;;22.70;14.20;;;;;;;8.01;100.00;94110.91;6075206;23;20184;-81
2022/03/30 10:19:34;;;;;;;25.67;14.60;;;;;;;8.06;100.00;94105.25;6124949;23;20175;-80
2022/03/30 10:22:17;;;;;;;26.33;14.13;;;;;;;7.90;100.00;94100.94;6075277;23;20153;-80
2022/03/30 10:25:02;;;;;;;25.77;14.87;;;;;;;8.07;100.00;94097.34;6126415;23;20149;-79
2022/03/30 10:27:45;;;;;;;24.03;13.93;;;;;;;8.09;100.00;94094.56;6107615;23;20603;-80
2022/03/30 10:30:12;;;;;;;27.70;15.33;;;;;;;8.01;100.00;94090.25;6106412;23;20177;-80
2022/03/30 10:32:38;;;;;;;22.33;13.70;;;;;;;8.18;100.00;94094.38;6081439;23;20156;-80
2022/03/30 10:35:13;;;;;;;23.60;13.40;;;;;;;8.19;100.00;94092.59;6082719;23;20184;-80
2022/03/30 10:37:40;;;;;;;25.17;13.83;;;;;;;8.17;100.00;94090.19;6077009;23;20490;-80
2022/03/30 10:40:08;;;;;;;29.30;14.60;;;;;;;8.26;100.00;94090.94;6102856;23;20156;-81
2022/03/30 10:42:46;;;;;;;22.80;13.50;;;;;;;8.26;100.00;94084.97;6103915;23;20157;-79
2022/03/30 10:45:30;;;;;;;29.40;19.10;;;;;;;8.31;100.00;94093.03;6109356;23;20241;-80
2022/03/30 10:48:23;;;;;;;18.67;14.77;;;;;;;8.27;100.00;94087.38;6088432;23;20191;-81
2022/03/30 10:51:01;;;;;;;20.43;14.63;;;;;;;8.29;100.00;94082.03;6089533;23;20156;-79
2022/03/30 10:53:30;;;;;;;16.93;12.37;;;;;;;8.20;100.00;94076.91;6113455;23;20147;-81
2022/03/30 10:56:03;;;;;;;16.77;12.70;;;;;;;8.17;100.00;94081.63;6109697;23;20191;-81
2022/03/30 10:58:29;;;;;;;24.93;12.77;;;;;;;8.12;100.00;94076.94;6081257;23;20167;-82
2022/03/30 11:01:12;;;;;;;22.00;13.10;;;;;;;8.05;100.00;94076.03;6103783;23;20168;-80
2022/03/30 11:03:54;;;;;;;15.10;11.23;;;;;;;7.91;100.00;94069.75;6077852;23;20160;-81
2022/03/30 11:06:19;;;;;;;17.73;9.90;;;;;;;7.88;100.00;94067.53;6097296;23;20176;-79
2022/03/30 11:08:55;;;;;;;12.13;9.60;;;;;;;7.93;100.00;94072.16;6098678;23;20167;-80
2022/03/30 11:11:30;;;;;;;12.93;8.83;;;;;;;7.94;100.00;94079.75;6098155;23;20495;-79
2022/03/30 11:14:24;;;;;;;12.00;7.53;;;;;;;7.79;100.00;94067.72;6099665;23;20176;-80
2022/03/30 11:16:54;;;;;;;288.73;17.67;;;;;;;7.59;100.00;94068.06;6106776;23;20191;-80
2022/03/30 11:19:26;;;;;;;27.97;8.07;;;;;;;7.71;100.00;94073.72;6077993;23;20153;-80
2022/03/30 11:22:11;;;;;;;23.77;6.73;;;;;;;7.80;100.00;94077.88;6077538;23;20502;-80
2022/03/30 11:24:38;;;;;;;94.93;12.00;;;;;;;7.57;100.00;94066.63;6103321;23;20208;-80
2022/03/30 11:27:04;;;;;;;26.67;8.53;;;;;;;7.46;100.00;94072.97;6101661;23;20217;-83
2022/03/30 11:29:41;;;;;;;8.90;7.30;;;;;;;7.45;100.00;94067.97;6103716;23;20164;-81
2022/03/30 11:32:18;;;;;;;7.73;6.83;;;;;;;7.41;100.00;94070.03;6101809;23;20631;-82